< Cyclone 198601 1986 Season Cyclone 198603 >
Cyclone 198602 (OPHELIA)
General InformationTrack Information on Google MapsDetailed Wind InformationList of All Images || ResourceGoogle EarthGE AnimationAtom FeedGeoJSON
Detalied Best Track (Time Zone = UTC)
Year Month Day Hour Lat. Long. Pressure (hPa) Wind (kt) Class Image Chart
1986 1 7 00 -8.5 97.6 1005 20 2 Image --
1986 1 7 18 -8.8 96.9 1004 25 2 Image --
1986 1 8 00 -9.0 96.7 1003 24 2 Image --
1986 1 8 06 -9.1 96.5 1003 24 2 Image --
1986 1 8 12 -9.3 96.3 1002 24 2 Image --
1986 1 8 18 -9.5 96.1 1002 25 2 Image --
1986 1 9 00 -9.6 95.8 1002 30 2 Image --
1986 1 9 03 -9.7 95.7 1002 35 3 Image --
1986 1 9 06 -9.8 95.6 1000 40 3 Image --
1986 1 9 12 -10.0 95.4 997 40 3 Image --
1986 1 9 18 -10.2 95.2 995 40 3 Image --
1986 1 10 00 -10.3 95.6 991 40 3 Image --
1986 1 10 06 -10.4 96.0 987 40 3 Image --
1986 1 10 09 -10.5 96.2 986 40 3 Image --
1986 1 10 12 -10.5 96.4 988 45 3 Image --
1986 1 10 18 -10.8 96.7 988 40 3 Image --
1986 1 11 00 -11.1 96.8 986 35 3 Image --
1986 1 11 06 -11.7 97.1 986 30 2 Image --
1986 1 11 12 -12.3 97.3 995 25 2 Image --
1986 1 11 18 -12.6 97.8 1002 25 2 Image --
1986 1 12 00 -12.8 98.1 1004 25 2 Image --
< Cyclone 198601 1986 Season Cyclone 198603 >

Help